sensor_id;sensor_type;location;lat;lon;timestamp;P1;durP1;ratioP1;P2;durP2;ratioP2
22557;SDS011;11445;53.816;8.902;2023-03-01T00:00:19;22.40;;;12.30;;
22557;SDS011;11445;53.816;8.902;2023-03-01T00:02:46;19.88;;;10.45;;
22557;SDS011;11445;53.816;8.902;2023-03-01T00:05:13;14.18;;;9.43;;
22557;SDS011;11445;53.816;8.902;2023-03-01T00:07:42;13.48;;;8.30;;
22557;SDS011;11445;53.816;8.902;2023-03-01T00:10:09;14.75;;;9.50;;
22557;SDS011;11445;53.816;8.902;2023-03-01T00:12:37;14.43;;;8.95;;
22557;SDS011;11445;53.816;8.902;2023-03-01T00:15:04;15.40;;;8.85;;
22557;SDS011;11445;53.816;8.902;2023-03-01T00:17:32;17.25;;;9.32;;
22557;SDS011;11445;53.816;8.902;2023-03-01T00:19:59;18.05;;;9.25;;
22557;SDS011;11445;53.816;8.902;2023-03-01T00:22:26;19.27;;;10.15;;
22557;SDS011;11445;53.816;8.902;2023-03-01T00:24:55;32.40;;;10.48;;
22557;SDS011;11445;53.816;8.902;2023-03-01T00:27:22;30.70;;;9.30;;
22557;SDS011;11445;53.816;8.902;2023-03-01T00:29:49;25.50;;;9.70;;
22557;SDS011;11445;53.816;8.902;2023-03-01T00:32:16;33.97;;;10.32;;
22557;SDS011;11445;53.816;8.902;2023-03-01T00:34:44;54.10;;;10.77;;
22557;SDS011;11445;53.816;8.902;2023-03-01T00:37:19;28.90;;;9.93;;
22557;SDS011;11445;53.816;8.902;2023-03-01T00:39:46;32.90;;;9.73;;
22557;SDS011;11445;53.816;8.902;2023-03-01T00:42:14;39.15;;;10.00;;
22557;SDS011;11445;53.816;8.902;2023-03-01T00:44:42;28.75;;;10.02;;
22557;SDS011;11445;53.816;8.902;2023-03-01T00:47:09;25.60;;;9.90;;
22557;SDS011;11445;53.816;8.902;2023-03-01T00:49:36;23.80;;;10.30;;
22557;SDS011;11445;53.816;8.902;2023-03-01T00:52:03;30.15;;;10.32;;
22557;SDS011;11445;53.816;8.902;2023-03-01T00:54:30;35.47;;;9.27;;
22557;SDS011;11445;53.816;8.902;2023-03-01T00:56:58;32.08;;;9.73;;
22557;SDS011;11445;53.816;8.902;2023-03-01T00:59:26;18.75;;;9.13;;
22557;SDS011;11445;53.816;8.902;2023-03-01T01:01:53;14.07;;;9.15;;
22557;SDS011;11445;53.816;8.902;2023-03-01T01:04:20;31.17;;;9.77;;
22557;SDS011;11445;53.816;8.902;2023-03-01T01:06:47;49.30;;;9.95;;
22557;SDS011;11445;53.816;8.902;2023-03-01T01:09:15;66.68;;;10.00;;
22557;SDS011;11445;53.816;8.902;2023-03-01T01:11:43;59.45;;;11.00;;
22557;SDS011;11445;53.816;8.902;2023-03-01T01:14:11;37.30;;;9.85;;
22557;SDS011;11445;53.816;8.902;2023-03-01T01:16:39;56.03;;;10.40;;
22557;SDS011;11445;53.816;8.902;2023-03-01T01:19:06;38.80;;;10.25;;
22557;SDS011;11445;53.816;8.902;2023-03-01T01:21:33;39.03;;;10.13;;
22557;SDS011;11445;53.816;8.902;2023-03-01T01:24:02;41.58;;;10.30;;
22557;SDS011;11445;53.816;8.902;2023-03-01T01:26:30;68.47;;;11.45;;
22557;SDS011;11445;53.816;8.902;2023-03-01T01:28:59;43.83;;;10.95;;
22557;SDS011;11445;53.816;8.902;2023-03-01T01:31:27;51.05;;;10.50;;
22557;SDS011;11445;53.816;8.902;2023-03-01T01:33:56;68.20;;;10.07;;
22557;SDS011;11445;53.816;8.902;2023-03-01T01:36:25;61.63;;;11.55;;
22557;SDS011;11445;53.816;8.902;2023-03-01T01:38:52;56.53;;;10.75;;
22557;SDS011;11445;53.816;8.902;2023-03-01T01:41:20;59.88;;;10.98;;
22557;SDS011;11445;53.816;8.902;2023-03-01T01:43:48;52.15;;;11.30;;
22557;SDS011;11445;53.816;8.902;2023-03-01T01:46:35;53.97;;;12.05;;
22557;SDS011;11445;53.816;8.902;2023-03-01T01:49:07;75.90;;;11.20;;
22557;SDS011;11445;53.816;8.902;2023-03-01T01:51:42;62.85;;;11.80;;
22557;SDS011;11445;53.816;8.902;2023-03-01T01:54:14;54.55;;;10.93;;
22557;SDS011;11445;53.816;8.902;2023-03-01T01:56:47;93.22;;;11.25;;
22557;SDS011;11445;53.816;8.902;2023-03-01T01:59:17;99.03;;;11.93;;
22557;SDS011;11445;53.816;8.902;2023-03-01T02:01:47;82.53;;;10.90;;
22557;SDS011;11445;53.816;8.902;2023-03-01T02:04:16;86.93;;;11.75;;
22557;SDS011;11445;53.816;8.902;2023-03-01T02:06:44;88.60;;;11.45;;
22557;SDS011;11445;53.816;8.902;2023-03-01T02:09:18;84.40;;;11.20;;
22557;SDS011;11445;53.816;8.902;2023-03-01T02:11:48;95.80;;;10.63;;
22557;SDS011;11445;53.816;8.902;2023-03-01T02:14:16;71.32;;;11.00;;
22557;SDS011;11445;53.816;8.902;2023-03-01T02:16:43;75.57;;;10.30;;
22557;SDS011;11445;53.816;8.902;2023-03-01T02:19:13;37.70;;;10.25;;
22557;SDS011;11445;53.816;8.902;2023-03-01T02:21:51;41.58;;;10.50;;
22557;SDS011;11445;53.816;8.902;2023-03-01T02:24:27;70.45;;;9.75;;
22557;SDS011;11445;53.816;8.902;2023-03-01T02:27:00;61.63;;;9.80;;
22557;SDS011;11445;53.816;8.902;2023-03-01T02:29:28;79.18;;;12.93;;
22557;SDS011;11445;53.816;8.902;2023-03-01T02:31:56;69.80;;;9.52;;
22557;SDS011;11445;53.816;8.902;2023-03-01T02:34:25;73.90;;;9.00;;
22557;SDS011;11445;53.816;8.902;2023-03-01T02:36:55;94.78;;;9.30;;
22557;SDS011;11445;53.816;8.902;2023-03-01T02:39:26;117.03;;;9.57;;
22557;SDS011;11445;53.816;8.902;2023-03-01T02:41:56;65.32;;;8.32;;
22557;SDS011;11445;53.816;8.902;2023-03-01T02:44:25;54.33;;;8.70;;
22557;SDS011;11445;53.816;8.902;2023-03-01T02:46:54;59.65;;;8.88;;
22557;SDS011;11445;53.816;8.902;2023-03-01T02:49:25;64.40;;;8.02;;
22557;SDS011;11445;53.816;8.902;2023-03-01T02:54:56;59.03;;;7.43;;
22557;SDS011;11445;53.816;8.902;2023-03-01T02:57:27;49.40;;;8.85;;
22557;SDS011;11445;53.816;8.902;2023-03-01T02:59:56;68.93;;;9.05;;
22557;SDS011;11445;53.816;8.902;2023-03-01T03:02:28;57.13;;;9.90;;
22557;SDS011;11445;53.816;8.902;2023-03-01T03:05:04;61.22;;;9.32;;
22557;SDS011;11445;53.816;8.902;2023-03-01T03:07:34;57.33;;;8.43;;
22557;SDS011;11445;53.816;8.902;2023-03-01T03:10:01;42.92;;;9.20;;
22557;SDS011;11445;53.816;8.902;2023-03-01T03:12:29;52.63;;;9.90;;
22557;SDS011;11445;53.816;8.902;2023-03-01T03:14:56;26.45;;;8.93;;
22557;SDS011;11445;53.816;8.902;2023-03-01T03:17:23;43.92;;;9.80;;
22557;SDS011;11445;53.816;8.902;2023-03-01T03:19:52;61.13;;;8.93;;
22557;SDS011;11445;53.816;8.902;2023-03-01T03:22:19;70.15;;;8.80;;
22557;SDS011;11445;53.816;8.902;2023-03-01T03:24:46;58.63;;;9.25;;
22557;SDS011;11445;53.816;8.902;2023-03-01T03:27:13;57.88;;;9.40;;
22557;SDS011;11445;53.816;8.902;2023-03-01T03:29:40;37.70;;;9.00;;
22557;SDS011;11445;53.816;8.902;2023-03-01T03:32:07;46.35;;;9.80;;
22557;SDS011;11445;53.816;8.902;2023-03-01T03:34:34;68.15;;;10.70;;
22557;SDS011;11445;53.816;8.902;2023-03-01T03:37:02;59.08;;;9.98;;
22557;SDS011;11445;53.816;8.902;2023-03-01T03:39:50;60.10;;;10.00;;
22557;SDS011;11445;53.816;8.902;2023-03-01T03:42:19;77.43;;;10.52;;
22557;SDS011;11445;53.816;8.902;2023-03-01T03:44:47;110.50;;;10.32;;
22557;SDS011;11445;53.816;8.902;2023-03-01T03:47:14;103.43;;;10.95;;
22557;SDS011;11445;53.816;8.902;2023-03-01T03:49:41;95.40;;;10.80;;
22557;SDS011;11445;53.816;8.902;2023-03-01T03:52:09;85.13;;;10.90;;
22557;SDS011;11445;53.816;8.902;2023-03-01T03:54:38;84.47;;;11.10;;
22557;SDS011;11445;53.816;8.902;2023-03-01T03:57:06;68.80;;;11.32;;
22557;SDS011;11445;53.816;8.902;2023-03-01T03:59:33;63.55;;;10.50;;
22557;SDS011;11445;53.816;8.902;2023-03-01T04:02:00;59.80;;;10.70;;
22557;SDS011;11445;53.816;8.902;2023-03-01T04:04:27;84.13;;;11.10;;
22557;SDS011;11445;53.816;8.902;2023-03-01T04:06:54;72.85;;;11.48;;
22557;SDS011;11445;53.816;8.902;2023-03-01T04:09:22;74.25;;;10.02;;
22557;SDS011;11445;53.816;8.902;2023-03-01T04:11:50;58.17;;;10.85;;
22557;SDS011;11445;53.816;8.902;2023-03-01T04:14:17;45.10;;;10.65;;
22557;SDS011;11445;53.816;8.902;2023-03-01T04:16:44;51.38;;;10.27;;
22557;SDS011;11445;53.816;8.902;2023-03-01T04:19:11;68.88;;;11.40;;
22557;SDS011;11445;53.816;8.902;2023-03-01T04:21:40;67.63;;;11.18;;
22557;SDS011;11445;53.816;8.902;2023-03-01T04:24:07;72.97;;;11.45;;
22557;SDS011;11445;53.816;8.902;2023-03-01T04:26:36;48.75;;;10.50;;
22557;SDS011;11445;53.816;8.902;2023-03-01T04:29:03;61.80;;;10.00;;
22557;SDS011;11445;53.816;8.902;2023-03-01T04:31:30;73.97;;;10.70;;
22557;SDS011;11445;53.816;8.902;2023-03-01T04:33:57;51.78;;;9.98;;
22557;SDS011;11445;53.816;8.902;2023-03-01T04:36:25;28.90;;;9.90;;
22557;SDS011;11445;53.816;8.902;2023-03-01T04:38:54;45.13;;;8.82;;
22557;SDS011;11445;53.816;8.902;2023-03-01T04:41:22;91.28;;;9.43;;
22557;SDS011;11445;53.816;8.902;2023-03-01T04:43:52;53.92;;;8.60;;
22557;SDS011;11445;53.816;8.902;2023-03-01T04:46:19;45.10;;;8.90;;
22557;SDS011;11445;53.816;8.902;2023-03-01T04:48:47;32.90;;;8.77;;
22557;SDS011;11445;53.816;8.902;2023-03-01T04:51:14;29.42;;;8.90;;
22557;SDS011;11445;53.816;8.902;2023-03-01T04:53:43;23.48;;;8.13;;
22557;SDS011;11445;53.816;8.902;2023-03-01T04:56:11;16.15;;;8.32;;
22557;SDS011;11445;53.816;8.902;2023-03-01T04:58:38;22.40;;;8.75;;
22557;SDS011;11445;53.816;8.902;2023-03-01T05:01:11;25.67;;;10.57;;
22557;SDS011;11445;53.816;8.902;2023-03-01T05:03:41;25.73;;;10.85;;
22557;SDS011;11445;53.816;8.902;2023-03-01T05:06:10;24.40;;;11.00;;
22557;SDS011;11445;53.816;8.902;2023-03-01T05:08:37;27.73;;;12.07;;
22557;SDS011;11445;53.816;8.902;2023-03-01T05:11:05;27.13;;;11.95;;
22557;SDS011;11445;53.816;8.902;2023-03-01T05:13:34;24.08;;;11.80;;
22557;SDS011;11445;53.816;8.902;2023-03-01T05:16:02;26.50;;;11.65;;
22557;SDS011;11445;53.816;8.902;2023-03-01T05:18:33;27.33;;;12.45;;
22557;SDS011;11445;53.816;8.902;2023-03-01T05:21:01;23.25;;;11.63;;
22557;SDS011;11445;53.816;8.902;2023-03-01T05:23:31;25.25;;;11.75;;
22557;SDS011;11445;53.816;8.902;2023-03-01T05:25:59;25.77;;;11.90;;
22557;SDS011;11445;53.816;8.902;2023-03-01T05:28:27;31.02;;;12.68;;
22557;SDS011;11445;53.816;8.902;2023-03-01T05:30:55;27.17;;;13.20;;
22557;SDS011;11445;53.816;8.902;2023-03-01T05:33:22;29.05;;;12.10;;
22557;SDS011;11445;53.816;8.902;2023-03-01T05:35:51;24.73;;;11.90;;
22557;SDS011;11445;53.816;8.902;2023-03-01T05:38:19;29.08;;;12.40;;
22557;SDS011;11445;53.816;8.902;2023-03-01T05:40:47;25.30;;;12.07;;
22557;SDS011;11445;53.816;8.902;2023-03-01T05:43:16;33.38;;;13.13;;
22557;SDS011;11445;53.816;8.902;2023-03-01T05:45:44;31.00;;;13.18;;
22557;SDS011;11445;53.816;8.902;2023-03-01T05:48:11;35.35;;;14.10;;
22557;SDS011;11445;53.816;8.902;2023-03-01T05:50:40;34.50;;;13.63;;
22557;SDS011;11445;53.816;8.902;2023-03-01T05:53:11;33.90;;;14.68;;
22557;SDS011;11445;53.816;8.902;2023-03-01T05:55:38;34.92;;;13.80;;
22557;SDS011;11445;53.816;8.902;2023-03-01T05:58:06;33.45;;;14.52;;
22557;SDS011;11445;53.816;8.902;2023-03-01T06:00:36;32.97;;;15.30;;
22557;SDS011;11445;53.816;8.902;2023-03-01T06:03:03;30.10;;;13.25;;
22557;SDS011;11445;53.816;8.902;2023-03-01T06:05:30;30.25;;;14.30;;
22557;SDS011;11445;53.816;8.902;2023-03-01T06:07:58;29.35;;;14.32;;
22557;SDS011;11445;53.816;8.902;2023-03-01T06:10:27;31.17;;;15.07;;
22557;SDS011;11445;53.816;8.902;2023-03-01T06:12:55;26.20;;;13.07;;
22557;SDS011;11445;53.816;8.902;2023-03-01T06:15:23;29.65;;;13.75;;
22557;SDS011;11445;53.816;8.902;2023-03-01T06:17:51;27.60;;;13.32;;
22557;SDS011;11445;53.816;8.902;2023-03-01T06:20:21;26.25;;;13.32;;
22557;SDS011;11445;53.816;8.902;2023-03-01T06:22:49;27.42;;;13.32;;
22557;SDS011;11445;53.816;8.902;2023-03-01T06:25:18;27.48;;;13.02;;
22557;SDS011;11445;53.816;8.902;2023-03-01T06:27:48;24.83;;;13.32;;
22557;SDS011;11445;53.816;8.902;2023-03-01T06:30:17;26.58;;;13.35;;
22557;SDS011;11445;53.816;8.902;2023-03-01T06:32:46;28.67;;;13.63;;
22557;SDS011;11445;53.816;8.902;2023-03-01T06:35:14;22.42;;;12.82;;
22557;SDS011;11445;53.816;8.902;2023-03-01T06:37:43;25.65;;;12.73;;
22557;SDS011;11445;53.816;8.902;2023-03-01T06:40:11;26.85;;;13.68;;
22557;SDS011;11445;53.816;8.902;2023-03-01T06:42:40;27.60;;;13.48;;
22557;SDS011;11445;53.816;8.902;2023-03-01T06:45:11;31.30;;;13.98;;
22557;SDS011;11445;53.816;8.902;2023-03-01T06:47:38;27.85;;;14.02;;
22557;SDS011;11445;53.816;8.902;2023-03-01T06:50:05;32.20;;;15.00;;
22557;SDS011;11445;53.816;8.902;2023-03-01T06:52:33;30.70;;;14.95;;
22557;SDS011;11445;53.816;8.902;2023-03-01T06:55:00;35.33;;;15.98;;
22557;SDS011;11445;53.816;8.902;2023-03-01T06:57:28;30.83;;;15.77;;
22557;SDS011;11445;53.816;8.902;2023-03-01T06:59:55;37.47;;;16.33;;
22557;SDS011;11445;53.816;8.902;2023-03-01T07:02:23;34.15;;;15.63;;
22557;SDS011;11445;53.816;8.902;2023-03-01T07:04:51;36.60;;;15.05;;
22557;SDS011;11445;53.816;8.902;2023-03-01T07:07:19;36.65;;;15.30;;
22557;SDS011;11445;53.816;8.902;2023-03-01T07:09:46;39.28;;;16.92;;
22557;SDS011;11445;53.816;8.902;2023-03-01T07:12:15;36.15;;;16.17;;
22557;SDS011;11445;53.816;8.902;2023-03-01T07:14:43;34.92;;;15.75;;
22557;SDS011;11445;53.816;8.902;2023-03-01T07:17:10;36.80;;;17.25;;
22557;SDS011;11445;53.816;8.902;2023-03-01T07:19:39;37.15;;;16.70;;
22557;SDS011;11445;53.816;8.902;2023-03-01T07:22:06;34.33;;;16.77;;
22557;SDS011;11445;53.816;8.902;2023-03-01T07:24:34;39.00;;;18.20;;
22557;SDS011;11445;53.816;8.902;2023-03-01T07:27:01;37.10;;;16.40;;
22557;SDS011;11445;53.816;8.902;2023-03-01T07:29:29;37.97;;;16.52;;
22557;SDS011;11445;53.816;8.902;2023-03-01T07:31:56;34.45;;;16.92;;
22557;SDS011;11445;53.816;8.902;2023-03-01T07:34:23;35.92;;;16.10;;
22557;SDS011;11445;53.816;8.902;2023-03-01T07:36:51;36.72;;;16.42;;
22557;SDS011;11445;53.816;8.902;2023-03-01T07:39:19;50.55;;;16.83;;
22557;SDS011;11445;53.816;8.902;2023-03-01T07:41:48;44.13;;;17.48;;
22557;SDS011;11445;53.816;8.902;2023-03-01T07:44:15;42.72;;;17.88;;
22557;SDS011;11445;53.816;8.902;2023-03-01T07:46:42;38.40;;;16.60;;
22557;SDS011;11445;53.816;8.902;2023-03-01T07:49:10;44.03;;;18.77;;
22557;SDS011;11445;53.816;8.902;2023-03-01T07:51:37;39.40;;;18.77;;
22557;SDS011;11445;53.816;8.902;2023-03-01T07:54:05;40.03;;;16.75;;
22557;SDS011;11445;53.816;8.902;2023-03-01T07:56:32;40.47;;;16.80;;
22557;SDS011;11445;53.816;8.902;2023-03-01T07:58:59;39.97;;;17.95;;
22557;SDS011;11445;53.816;8.902;2023-03-01T08:01:26;42.10;;;19.13;;
22557;SDS011;11445;53.816;8.902;2023-03-01T08:03:53;37.13;;;17.65;;
22557;SDS011;11445;53.816;8.902;2023-03-01T08:06:20;41.45;;;18.30;;
22557;SDS011;11445;53.816;8.902;2023-03-01T08:08:48;36.95;;;15.88;;
22557;SDS011;11445;53.816;8.902;2023-03-01T08:11:16;38.22;;;17.70;;
22557;SDS011;11445;53.816;8.902;2023-03-01T08:13:43;41.38;;;17.23;;
22557;SDS011;11445;53.816;8.902;2023-03-01T08:16:13;36.30;;;17.30;;
22557;SDS011;11445;53.816;8.902;2023-03-01T08:18:41;37.20;;;17.45;;
22557;SDS011;11445;53.816;8.902;2023-03-01T08:21:10;42.50;;;18.67;;
22557;SDS011;11445;53.816;8.902;2023-03-01T08:23:38;36.22;;;17.50;;
22557;SDS011;11445;53.816;8.902;2023-03-01T08:26:06;39.58;;;18.70;;
22557;SDS011;11445;53.816;8.902;2023-03-01T08:28:36;46.67;;;21.92;;
22557;SDS011;11445;53.816;8.902;2023-03-01T08:31:12;44.30;;;18.95;;
22557;SDS011;11445;53.816;8.902;2023-03-01T08:33:40;46.63;;;19.08;;
22557;SDS011;11445;53.816;8.902;2023-03-01T08:36:07;43.13;;;18.17;;
22557;SDS011;11445;53.816;8.902;2023-03-01T08:38:35;42.60;;;18.30;;
22557;SDS011;11445;53.816;8.902;2023-03-01T08:41:02;40.88;;;18.58;;
22557;SDS011;11445;53.816;8.902;2023-03-01T08:43:30;37.53;;;19.63;;
22557;SDS011;11445;53.816;8.902;2023-03-01T08:45:58;40.80;;;18.85;;
22557;SDS011;11445;53.816;8.902;2023-03-01T08:48:27;43.97;;;18.83;;
22557;SDS011;11445;53.816;8.902;2023-03-01T08:50:54;43.13;;;19.85;;
22557;SDS011;11445;53.816;8.902;2023-03-01T08:53:21;47.55;;;21.77;;
22557;SDS011;11445;53.816;8.902;2023-03-01T08:55:49;52.35;;;23.30;;
22557;SDS011;11445;53.816;8.902;2023-03-01T08:58:16;55.83;;;22.98;;
22557;SDS011;11445;53.816;8.902;2023-03-01T09:00:43;44.15;;;21.73;;
22557;SDS011;11445;53.816;8.902;2023-03-01T09:03:11;46.45;;;23.42;;
22557;SDS011;11445;53.816;8.902;2023-03-01T09:05:38;42.83;;;21.17;;
22557;SDS011;11445;53.816;8.902;2023-03-01T09:08:05;48.00;;;22.77;;
22557;SDS011;11445;53.816;8.902;2023-03-01T09:10:36;42.08;;;22.52;;
22557;SDS011;11445;53.816;8.902;2023-03-01T09:13:04;40.95;;;21.00;;
22557;SDS011;11445;53.816;8.902;2023-03-01T09:15:31;40.08;;;20.92;;
22557;SDS011;11445;53.816;8.902;2023-03-01T09:17:58;39.00;;;20.08;;
22557;SDS011;11445;53.816;8.902;2023-03-01T09:20:27;37.10;;;19.73;;
22557;SDS011;11445;53.816;8.902;2023-03-01T09:22:54;37.40;;;19.25;;
22557;SDS011;11445;53.816;8.902;2023-03-01T09:25:21;41.60;;;22.23;;
22557;SDS011;11445;53.816;8.902;2023-03-01T09:27:50;43.00;;;23.23;;
22557;SDS011;11445;53.816;8.902;2023-03-01T09:30:17;39.50;;;18.25;;
22557;SDS011;11445;53.816;8.902;2023-03-01T09:32:45;39.30;;;20.90;;
22557;SDS011;11445;53.816;8.902;2023-03-01T09:35:12;39.55;;;20.05;;
22557;SDS011;11445;53.816;8.902;2023-03-01T09:37:40;40.38;;;20.30;;
22557;SDS011;11445;53.816;8.902;2023-03-01T09:40:10;38.80;;;19.08;;
22557;SDS011;11445;53.816;8.902;2023-03-01T09:42:45;38.35;;;19.50;;
22557;SDS011;11445;53.816;8.902;2023-03-01T09:45:18;29.50;;;17.08;;
22557;SDS011;11445;53.816;8.902;2023-03-01T09:47:53;36.58;;;18.35;;
22557;SDS011;11445;53.816;8.902;2023-03-01T09:50:22;34.20;;;18.35;;
22557;SDS011;11445;53.816;8.902;2023-03-01T09:52:54;27.92;;;16.83;;
22557;SDS011;11445;53.816;8.902;2023-03-01T09:55:30;22.00;;;13.85;;
22557;SDS011;11445;53.816;8.902;2023-03-01T09:58:01;33.30;;;17.33;;
22557;SDS011;11445;53.816;8.902;2023-03-01T10:00:52;32.00;;;16.50;;
22557;SDS011;11445;53.816;8.902;2023-03-01T10:03:23;32.72;;;17.92;;
22557;SDS011;11445;53.816;8.902;2023-03-01T10:05:56;32.57;;;17.73;;
22557;SDS011;11445;53.816;8.902;2023-03-01T10:08:30;25.67;;;15.40;;
22557;SDS011;11445;53.816;8.902;2023-03-01T10:11:04;20.67;;;11.82;;
22557;SDS011;11445;53.816;8.902;2023-03-01T10:13:42;21.67;;;12.18;;
22557;SDS011;11445;53.816;8.902;2023-03-01T10:16:19;21.90;;;13.10;;
22557;SDS011;11445;53.816;8.902;2023-03-01T10:18:51;20.17;;;12.40;;
22557;SDS011;11445;53.816;8.902;2023-03-01T10:21:22;19.55;;;11.65;;
22557;SDS011;11445;53.816;8.902;2023-03-01T10:23:50;20.58;;;11.13;;
22557;SDS011;11445;53.816;8.902;2023-03-01T10:26:24;19.02;;;10.60;;
22557;SDS011;11445;53.816;8.902;2023-03-01T10:29:04;18.95;;;11.50;;
22557;SDS011;11445;53.816;8.902;2023-03-01T10:31:36;20.10;;;12.48;;
22557;SDS011;11445;53.816;8.902;2023-03-01T10:34:08;14.48;;;9.45;;
22557;SDS011;11445;53.816;8.902;2023-03-01T10:36:38;16.27;;;10.07;;
22557;SDS011;11445;53.816;8.902;2023-03-01T10:39:12;14.90;;;9.23;;
22557;SDS011;11445;53.816;8.902;2023-03-01T10:41:52;17.65;;;9.80;;
22557;SDS011;11445;53.816;8.902;2023-03-01T10:44:38;15.40;;;9.00;;
22557;SDS011;11445;53.816;8.902;2023-03-01T10:47:16;17.23;;;9.05;;
22557;SDS011;11445;53.816;8.902;2023-03-01T10:49:53;12.70;;;8.10;;
22557;SDS011;11445;53.816;8.902;2023-03-01T10:52:24;13.57;;;8.70;;
22557;SDS011;11445;53.816;8.902;2023-03-01T10:54:55;15.98;;;8.68;;
22557;SDS011;11445;53.816;8.902;2023-03-01T10:57:34;14.48;;;9.40;;
22557;SDS011;11445;53.816;8.902;2023-03-01T11:00:16;13.38;;;8.80;;
22557;SDS011;11445;53.816;8.902;2023-03-01T11:02:50;13.88;;;9.80;;
22557;SDS011;11445;53.816;8.902;2023-03-01T11:05:29;13.98;;;9.82;;
22557;SDS011;11445;53.816;8.902;2023-03-01T11:07:59;19.15;;;11.75;;
22557;SDS011;11445;53.816;8.902;2023-03-01T11:10:30;23.13;;;13.25;;
22557;SDS011;11445;53.816;8.902;2023-03-01T11:13:06;20.17;;;12.27;;
22557;SDS011;11445;53.816;8.902;2023-03-01T11:15:35;20.00;;;10.50;;
22557;SDS011;11445;53.816;8.902;2023-03-01T11:18:02;16.25;;;10.57;;
22557;SDS011;11445;53.816;8.902;2023-03-01T11:20:30;19.27;;;11.55;;
22557;SDS011;11445;53.816;8.902;2023-03-01T11:22:59;16.42;;;9.93;;
22557;SDS011;11445;53.816;8.902;2023-03-01T11:25:33;16.88;;;10.05;;
22557;SDS011;11445;53.816;8.902;2023-03-01T11:28:03;16.50;;;10.40;;
22557;SDS011;11445;53.816;8.902;2023-03-01T11:30:37;18.45;;;10.98;;
22557;SDS011;11445;53.816;8.902;2023-03-01T11:33:17;15.63;;;9.65;;
22557;SDS011;11445;53.816;8.902;2023-03-01T11:38:22;21.55;;;11.90;;
22557;SDS011;11445;53.816;8.902;2023-03-01T11:40:54;20.20;;;11.88;;
22557;SDS011;11445;53.816;8.902;2023-03-01T11:43:29;20.92;;;11.38;;
22557;SDS011;11445;53.816;8.902;2023-03-01T11:49:09;18.27;;;11.15;;
22557;SDS011;11445;53.816;8.902;2023-03-01T11:51:49;19.60;;;10.82;;
22557;SDS011;11445;53.816;8.902;2023-03-01T11:54:27;17.30;;;10.40;;
22557;SDS011;11445;53.816;8.902;2023-03-01T11:57:06;17.50;;;10.32;;
22557;SDS011;11445;53.816;8.902;2023-03-01T11:59:51;14.48;;;9.38;;
22557;SDS011;11445;53.816;8.902;2023-03-01T12:05:46;21.00;;;10.75;;
22557;SDS011;11445;53.816;8.902;2023-03-01T12:08:29;19.05;;;9.95;;
22557;SDS011;11445;53.816;8.902;2023-03-01T12:11:03;17.58;;;10.20;;
22557;SDS011;11445;53.816;8.902;2023-03-01T12:13:45;16.58;;;9.73;;
22557;SDS011;11445;53.816;8.902;2023-03-01T12:16:28;15.40;;;9.32;;
22557;SDS011;11445;53.816;8.902;2023-03-01T12:19:11;17.20;;;9.60;;
22557;SDS011;11445;53.816;8.902;2023-03-01T12:22:00;18.98;;;9.35;;
22557;SDS011;11445;53.816;8.902;2023-03-01T12:24:45;34.78;;;9.13;;
22557;SDS011;11445;53.816;8.902;2023-03-01T12:27:29;21.10;;;11.63;;
22557;SDS011;11445;53.816;8.902;2023-03-01T12:30:18;20.38;;;11.48;;
22557;SDS011;11445;53.816;8.902;2023-03-01T12:32:56;17.85;;;10.60;;
22557;SDS011;11445;53.816;8.902;2023-03-01T12:35:50;20.05;;;10.55;;
22557;SDS011;11445;53.816;8.902;2023-03-01T12:38:32;21.23;;;11.07;;
22557;SDS011;11445;53.816;8.902;2023-03-01T12:41:21;20.08;;;10.25;;
22557;SDS011;11445;53.816;8.902;2023-03-01T12:44:01;19.55;;;11.18;;
22557;SDS011;11445;53.816;8.902;2023-03-01T12:46:45;23.38;;;11.25;;
22557;SDS011;11445;53.816;8.902;2023-03-01T12:49:20;23.48;;;10.93;;
22557;SDS011;11445;53.816;8.902;2023-03-01T12:51:54;24.98;;;12.25;;
22557;SDS011;11445;53.816;8.902;2023-03-01T12:54:26;25.50;;;12.27;;
22557;SDS011;11445;53.816;8.902;2023-03-01T12:56:56;21.50;;;11.55;;
22557;SDS011;11445;53.816;8.902;2023-03-01T12:59:27;20.20;;;10.73;;
22557;SDS011;11445;53.816;8.902;2023-03-01T13:02:05;18.83;;;10.48;;
22557;SDS011;11445;53.816;8.902;2023-03-01T13:04:43;22.52;;;11.43;;
22557;SDS011;11445;53.816;8.902;2023-03-01T13:07:23;19.30;;;10.32;;
22557;SDS011;11445;53.816;8.902;2023-03-01T13:09:58;20.15;;;10.18;;
22557;SDS011;11445;53.816;8.902;2023-03-01T13:12:44;18.80;;;10.35;;
22557;SDS011;11445;53.816;8.902;2023-03-01T13:15:25;18.92;;;9.73;;
22557;SDS011;11445;53.816;8.902;2023-03-01T13:18:04;14.23;;;7.70;;
22557;SDS011;11445;53.816;8.902;2023-03-01T13:20:57;18.70;;;9.35;;
22557;SDS011;11445;53.816;8.902;2023-03-01T13:23:27;14.27;;;7.65;;
22557;SDS011;11445;53.816;8.902;2023-03-01T13:26:06;16.02;;;7.95;;
22557;SDS011;11445;53.816;8.902;2023-03-01T13:34:46;9.93;;;5.78;;
22557;SDS011;11445;53.816;8.902;2023-03-01T13:37:30;10.65;;;5.68;;
22557;SDS011;11445;53.816;8.902;2023-03-01T13:40:01;13.13;;;5.80;;
22557;SDS011;11445;53.816;8.902;2023-03-01T13:42:39;12.65;;;5.57;;
22557;SDS011;11445;53.816;8.902;2023-03-01T13:45:25;9.82;;;5.88;;
22557;SDS011;11445;53.816;8.902;2023-03-01T13:48:02;11.10;;;6.97;;
22557;SDS011;11445;53.816;8.902;2023-03-01T13:50:38;11.97;;;6.83;;
22557;SDS011;11445;53.816;8.902;2023-03-01T13:53:14;8.88;;;5.55;;
22557;SDS011;11445;53.816;8.902;2023-03-01T13:55:44;11.98;;;6.10;;
22557;SDS011;11445;53.816;8.902;2023-03-01T13:58:19;11.90;;;6.65;;
22557;SDS011;11445;53.816;8.902;2023-03-01T14:00:54;16.00;;;7.22;;
22557;SDS011;11445;53.816;8.902;2023-03-01T14:03:24;12.77;;;7.07;;
22557;SDS011;11445;53.816;8.902;2023-03-01T14:06:00;12.43;;;6.80;;
22557;SDS011;11445;53.816;8.902;2023-03-01T14:08:31;10.40;;;6.50;;
22557;SDS011;11445;53.816;8.902;2023-03-01T14:17:00;9.45;;;5.10;;
22557;SDS011;11445;53.816;8.902;2023-03-01T14:19:36;12.07;;;6.13;;
22557;SDS011;11445;53.816;8.902;2023-03-01T14:22:06;9.65;;;5.57;;
22557;SDS011;11445;53.816;8.902;2023-03-01T14:24:46;11.25;;;6.03;;
22557;SDS011;11445;53.816;8.902;2023-03-01T14:27:14;10.70;;;5.85;;
22557;SDS011;11445;53.816;8.902;2023-03-01T14:29:42;11.73;;;6.00;;
22557;SDS011;11445;53.816;8.902;2023-03-01T14:32:10;13.15;;;6.68;;
22557;SDS011;11445;53.816;8.902;2023-03-01T14:34:42;12.10;;;7.00;;
22557;SDS011;11445;53.816;8.902;2023-03-01T14:37:15;12.35;;;6.47;;
22557;SDS011;11445;53.816;8.902;2023-03-01T14:39:46;15.15;;;7.13;;
22557;SDS011;11445;53.816;8.902;2023-03-01T14:42:13;10.15;;;6.45;;
22557;SDS011;11445;53.816;8.902;2023-03-01T14:44:41;12.95;;;6.30;;
22557;SDS011;11445;53.816;8.902;2023-03-01T14:47:11;11.13;;;6.45;;
22557;SDS011;11445;53.816;8.902;2023-03-01T14:49:41;11.20;;;6.60;;
22557;SDS011;11445;53.816;8.902;2023-03-01T14:52:18;11.63;;;6.10;;
22557;SDS011;11445;53.816;8.902;2023-03-01T14:54:47;9.40;;;5.82;;
22557;SDS011;11445;53.816;8.902;2023-03-01T14:57:17;11.65;;;6.43;;
22557;SDS011;11445;53.816;8.902;2023-03-01T14:59:48;12.38;;;6.82;;
22557;SDS011;11445;53.816;8.902;2023-03-01T15:02:18;9.15;;;5.90;;
22557;SDS011;11445;53.816;8.902;2023-03-01T15:04:49;11.80;;;6.22;;
22557;SDS011;11445;53.816;8.902;2023-03-01T15:07:19;9.70;;;6.28;;
22557;SDS011;11445;53.816;8.902;2023-03-01T15:09:46;12.48;;;6.70;;